Atlanta, Georgia
Traffic Map
Current Weather Conditions
Atlanta, Georgia
Overcast Light Rain
Overcast
49°
Feels Like: 43°
Wind Chill: 43° Ceiling: 400
Heat Index: 49° Visibility: 2mi
Dew Point: 47° Wind: 17mph
Humidity: 93% Direction: 80° (E)
Pressure: 29.94in Gusts: 0mph
Raw Report DataKATL 141952Z 08015KT 2SM -RA BR BKN004 OVC015 09/08 A2994 RMK AO2 SFC VIS 4 DZE19RAB19 SLP141 P0007 T00940083
Traffic Incident Summary
Active as of:
Severity:
Category:
InformationThere was an issue retrieving the traffic information for this location. Please try a different location or try again shortly.
Advertisements